Terminal Aerodrome Forecast
Issued by NWS

Home | Current Version | Previous Version | Text Only | Print | Product List | Glossary On
Versions: 1 2 3 4 5 6 7 8 9 10 11 12 13 14 15 16 17
000
FTUS42 KTBW 291727
TAFPIE
TAF
KPIE 291727Z 2918/3018 23011KT P6SM VCTS SCT025CB BKN100
     FM292000 26008KT P6SM VCTS SCT035CB BKN130
     FM300000 21004KT P6SM VCSH SCT030 BKN200
     FM300300 18004KT P6SM SCT025 SCT250
     FM300600 20004KT P6SM VCSH SCT025 SCT250
     FM301400 21006KT P6SM VCTS SCT025CB BKN250=

USA.gov is the U.S. government's official web portal to all federal, state and local government web resources and services.